Time;durP1;ratioP1;P1;durP2;ratioP2;P2;SDS_P1;SDS_P2;PMS_P1;PMS_P2;Temp;Humidity;BMP_temperature;BMP_pressure;BME280_temperature;BME280_humidity;BME280_pressure;Samples;Min_cycle;Max_cycle;Signal;HPM_P1;HPM_P2
2022/05/14 00:03:39;;;;;;;6.77;2.43;;;9.60;10.80;;;;;;8330744;28;20186;-78
2022/05/14 00:07:40;;;;;;;4.70;2.47;;;9.50;6.40;;;;;;8321571;28;20194;-78
2022/05/14 00:16:01;;;;;;;4.80;2.83;;;9.50;53.10;;;;;;8343991;28;20197;-78
2022/05/14 00:20:02;;;;;;;5.67;2.73;;;9.40;99.90;;;;;;8305517;28;20248;-77
2022/05/14 00:24:06;;;;;;;3.60;2.50;;;9.40;99.90;;;;;;8322645;28;20193;-77
2022/05/14 00:28:07;;;;;;;3.87;2.40;;;9.40;99.90;;;;;;8322470;28;20198;-78
2022/05/14 00:32:07;;;;;;;6.20;2.50;;;9.30;99.90;;;;;;8337889;28;20206;-78
2022/05/14 00:36:08;;;;;;;5.67;3.20;;;9.20;99.90;;;;;;8319155;28;20213;-78
2022/05/14 00:40:18;;;;;;;6.90;3.67;;;9.10;99.90;;;;;;8342656;28;20224;-78
2022/05/14 00:44:19;;;;;;;3.90;2.33;;;9.10;1.00;;;;;;8327462;28;20217;-78
2022/05/14 00:48:20;;;;;;;5.70;2.80;;;9.10;57.50;;;;;;8323043;28;20186;-77
2022/05/14 00:52:22;;;;;;;5.83;2.50;;;9.10;99.90;;;;;;8339414;28;20209;-78
2022/05/14 00:56:27;;;;;;;3.13;2.50;;;9.10;99.90;;;;;;8321995;28;20300;-78
2022/05/14 01:00:29;;;;;;;6.23;2.73;;;9.20;99.90;;;;;;8333268;28;20351;-78
2022/05/14 01:04:30;;;;;;;5.03;2.67;;;9.20;25.20;;;;;;8321239;28;20281;-78
2022/05/14 01:08:31;;;;;;;3.93;2.53;;;9.20;44.40;;;;;;8325014;28;20187;-78
2022/05/14 01:12:34;;;;;;;5.20;3.10;;;9.20;19.30;;;;;;8344266;28;20213;-78
2022/05/14 01:16:35;;;;;;;2.93;2.37;;;9.20;92.70;;;;;;8339406;28;20186;-78
2022/05/14 01:20:37;;;;;;;5.73;2.53;;;9.20;99.90;;;;;;8330162;28;20183;-78
2022/05/14 01:29:08;;;;;;;4.60;2.30;;;9.20;99.90;;;;;;8341158;28;20209;-78
2022/05/14 01:33:09;;;;;;;4.60;2.57;;;9.10;99.90;;;;;;8319476;28;20217;-77
2022/05/14 01:37:10;;;;;;;7.97;2.57;;;9.10;99.90;;;;;;8326236;28;20269;-77
2022/05/14 01:41:11;;;;;;;5.13;2.17;;;9.00;99.90;;;;;;8328164;28;20206;-78
2022/05/14 01:45:12;;;;;;;4.97;2.60;;;8.90;99.90;;;;;;8323008;28;20193;-78
2022/05/14 01:49:13;;;;;;;5.27;2.43;;;8.90;99.90;;;;;;8323933;28;20320;-78
2022/05/14 01:53:14;;;;;;;2.90;2.00;;;8.90;1.00;;;;;;8326272;28;20206;-76
2022/05/14 01:57:15;;;;;;;6.03;2.93;;;8.90;1.00;;;;;;8343892;28;20274;-78
2022/05/14 02:01:17;;;;;;;3.23;2.30;;;8.90;99.90;;;;;;8323208;28;20190;-78
2022/05/14 02:05:18;;;;;;;3.60;2.40;;;8.90;99.90;;;;;;8307667;28;20190;-78
2022/05/14 02:09:19;;;;;;;4.70;2.40;;;8.90;99.90;;;;;;8324677;28;20329;-78
2022/05/14 02:13:20;;;;;;;3.83;2.40;;;8.90;99.90;;;;;;8320793;28;20213;-78
2022/05/14 02:17:21;;;;;;;2.40;1.97;;;8.90;99.90;;;;;;8322353;28;20208;-78
2022/05/14 02:21:24;;;;;;;2.43;2.03;;;8.90;99.90;;;;;;8338148;28;20221;-78
2022/05/14 02:25:25;;;;;;;6.30;2.27;;;8.90;99.90;;;;;;8332625;28;20182;-79
2022/05/14 02:29:50;;;;;;;3.53;2.20;;;8.80;99.90;;;;;;8317059;28;20253;-77
2022/05/14 02:33:50;;;;;;;2.63;2.30;;;8.80;99.90;;;;;;8337923;28;20247;-79
2022/05/14 02:37:51;;;;;;;2.47;2.17;;;8.80;99.90;;;;;;8322563;28;20190;-77
2022/05/14 02:41:52;;;;;;;3.40;2.37;;;8.80;1.00;;;;;;8328055;28;20496;-79
2022/05/14 02:45:53;;;;;;;5.87;2.60;;;8.70;1.00;;;;;;8306302;28;20210;-78
2022/05/14 02:49:54;;;;;;;5.77;2.37;;;8.70;1.00;;;;;;8328705;28;20255;-78
2022/05/14 02:53:55;;;;;;;4.63;2.10;;;8.70;1.00;;;;;;8333094;28;20254;-78
2022/05/14 02:57:56;;;;;;;4.03;2.20;;;8.70;1.00;;;;;;8328073;28;20181;-79
2022/05/14 03:01:57;;;;;;;4.00;2.13;;;8.80;99.90;;;;;;8327223;28;20217;-78
2022/05/14 03:05:58;;;;;;;3.90;2.20;;;8.80;99.90;;;;;;8333746;28;20200;-77
2022/05/14 03:09:59;;;;;;;4.97;2.37;;;8.80;99.90;;;;;;8346559;28;20261;-78
2022/05/14 03:14:00;;;;;;;3.23;2.13;;;8.90;99.90;;;;;;8322281;28;20237;-77
2022/05/14 03:18:01;;;;;;;4.03;2.20;;;8.90;99.90;;;;;;8322023;28;20188;-78
2022/05/14 03:22:03;;;;;;;3.93;1.67;;;9.00;99.90;;;;;;8324455;28;20186;-79
2022/05/14 03:26:04;;;;;;;3.62;2.10;;;9.00;27.20;;;;;;8272258;28;1807411;-80
2022/05/14 03:30:06;;;;;;;4.67;2.20;;;9.20;1.00;;;;;;8333087;28;20235;-77
2022/05/14 03:34:10;;;;;;;4.27;2.03;;;9.40;99.90;;;;;;8319630;28;20236;-75
2022/05/14 03:38:11;;;;;;;3.97;2.40;;;9.60;99.90;;;;;;8352076;28;20171;-76
2022/05/14 03:42:12;;;;;;;7.57;2.50;;;9.80;44.80;;;;;;8339523;28;20205;-78
2022/05/14 03:46:13;;;;;;;8.80;2.43;;;9.90;1.00;;;;;;8326489;28;20198;-76
2022/05/14 03:50:14;;;;;;;4.87;1.83;;;10.00;1.00;;;;;;8326020;28;20186;-76
2022/05/14 03:54:15;;;;;;;2.70;2.23;;;10.30;99.90;;;;;;8326836;28;20202;-76
2022/05/14 03:58:16;;;;;;;3.47;1.83;;;10.90;99.90;;;;;;8324659;28;20184;-74
2022/05/14 04:02:17;;;;;;;4.03;2.20;;;11.60;1.00;;;;;;8347614;28;20182;-75
2022/05/14 04:06:18;;;;;;;3.20;2.00;;;12.30;99.90;;;;;;8322873;28;20299;-80
2022/05/14 04:10:19;;;;;;;3.90;1.90;;;12.80;99.90;;;;;;8338206;28;20182;-76
2022/05/14 04:14:21;;;;;;;5.40;1.87;;;13.20;89.60;;;;;;8340123;28;20212;-75
2022/05/14 04:18:25;;;;;;;4.30;2.13;;;13.70;1.00;;;;;;8322878;28;20204;-77
2022/05/14 04:22:25;;;;;;;4.43;1.97;;;14.20;1.00;;;;;;8319954;28;20183;-76
2022/05/14 04:26:27;;;;;;;3.53;1.80;;;14.40;1.00;;;;;;8324973;28;20284;-76
2022/05/14 04:30:28;;;;;;;3.73;1.70;;;14.70;1.00;;;;;;8325247;28;20273;-77
2022/05/14 04:34:29;;;;;;;3.53;1.80;;;15.00;99.90;;;;;;8321116;28;20221;-75
2022/05/14 04:38:30;;;;;;;2.03;1.60;;;15.20;99.90;;;;;;8340187;28;20197;-79
2022/05/14 04:42:30;;;;;;;2.90;1.83;;;14.90;99.90;;;;;;8332367;28;20275;-77
2022/05/14 04:46:35;;;;;;;4.13;1.63;;;14.60;1.00;;;;;;8330265;28;20187;-77
2022/05/14 04:50:36;;;;;;;3.13;1.90;;;14.00;1.00;;;;;;8327809;28;20194;-79
2022/05/14 04:54:37;;;;;;;2.97;1.87;;;13.60;1.00;;;;;;8322862;28;20214;-76
2022/05/14 04:58:38;;;;;;;3.60;1.80;;;13.90;1.00;;;;;;8320746;28;20216;-75
2022/05/14 05:06:59;;;;;;;6.83;2.10;;;14.00;1.00;;;;;;8343248;28;20332;-75
2022/05/14 05:11:00;;;;;;;5.20;1.93;;;13.90;1.00;;;;;;8324755;28;20182;-76
2022/05/14 05:15:01;;;;;;;6.03;2.20;;;13.80;1.00;;;;;;8329024;28;20216;-76
2022/05/14 05:19:02;;;;;;;3.67;2.00;;;13.70;3.90;;;;;;8323740;28;20349;-75
2022/05/14 05:23:04;;;;;;;4.23;1.90;;;13.70;54.60;;;;;;8325818;28;20321;-79
2022/05/14 05:27:05;;;;;;;5.70;1.90;;;13.80;31.00;;;;;;8321516;28;20205;-75
2022/05/14 05:31:07;;;;;;;5.20;1.80;;;14.00;61.80;;;;;;8330860;28;20216;-75
2022/05/14 05:35:07;;;;;;;4.73;2.03;;;14.10;5.90;;;;;;8330142;28;20220;-75
2022/05/14 05:39:10;;;;;;;5.53;2.00;;;14.40;1.00;;;;;;8323770;28;20193;-80
2022/05/14 05:43:11;;;;;;;8.00;2.20;;;14.70;1.00;;;;;;8342156;28;20178;-78
2022/05/14 05:47:13;;;;;;;2.40;1.93;;;15.10;1.00;;;;;;8335257;28;20181;-75
2022/05/14 05:51:14;;;;;;;3.33;1.60;;;15.50;1.00;;;;;;8318788;28;20213;-75
2022/05/14 05:59:34;;;;;;;3.47;1.97;;;15.90;99.90;;;;;;8335460;28;20198;-76
2022/05/14 06:03:34;;;;;;;6.60;2.03;;;16.00;99.90;;;;;;8331132;28;20181;-75
2022/05/14 06:07:36;;;;;;;3.77;1.90;;;16.10;99.90;;;;;;8323703;28;20200;-76
2022/05/14 06:11:37;;;;;;;6.30;2.27;;;16.10;99.90;;;;;;8325430;28;20229;-80
2022/05/14 06:15:39;;;;;;;4.20;2.10;;;16.30;99.90;;;;;;8334640;28;20182;-80
2022/05/14 06:19:41;;;;;;;4.53;1.97;;;16.60;99.90;;;;;;8324595;28;20237;-79
2022/05/14 06:23:42;;;;;;;2.93;1.80;;;16.70;99.90;;;;;;8339625;28;20189;-76
2022/05/14 06:27:43;;;;;;;3.87;1.60;;;16.50;99.90;;;;;;8327210;28;20286;-79
2022/05/14 06:31:44;;;;;;;4.50;2.23;;;16.60;99.90;;;;;;8315221;28;20210;-75
2022/05/14 06:35:45;;;;;;;3.83;1.80;;;16.70;99.90;;;;;;8334918;28;20185;-77
2022/05/14 06:39:46;;;;;;;3.27;1.73;;;17.00;99.90;;;;;;8342732;28;20237;-75
2022/05/14 06:43:47;;;;;;;5.87;1.90;;;17.30;99.90;;;;;;8326826;28;20186;-76
2022/05/14 06:47:48;;;;;;;3.43;1.40;;;17.60;99.90;;;;;;8328240;28;20305;-80
2022/05/14 06:51:52;;;;;;;6.73;2.07;;;17.70;99.90;;;;;;8321564;28;20245;-79
2022/05/14 06:55:55;;;;;;;7.67;2.00;;;17.60;99.90;;;;;;8328001;28;20191;-78
2022/05/14 06:59:56;;;;;;;4.90;2.07;;;17.30;99.90;;;;;;8318766;28;20189;-75
2022/05/14 07:08:21;;;;;;;3.13;1.80;;;17.20;99.90;;;;;;8338171;28;20213;-76
2022/05/14 07:12:25;;;;;;;2.83;2.00;;;17.20;99.90;;;;;;8321872;28;20205;-76
2022/05/14 07:16:26;;;;;;;3.57;2.17;;;17.20;99.90;;;;;;8322964;28;20182;-77
2022/05/14 07:20:27;;;;;;;3.97;2.90;;;17.20;99.90;;;;;;8331775;28;20185;-77
2022/05/14 07:24:29;;;;;;;8.33;3.13;;;17.30;99.90;;;;;;8351563;28;20231;-75
2022/05/14 07:28:30;;;;;;;6.37;3.10;;;17.10;99.90;;;;;;8334578;28;20256;-80
2022/05/14 07:32:31;;;;;;;2.93;2.50;;;16.90;99.90;;;;;;8346160;28;20544;-78
2022/05/14 07:36:38;;;;;;;6.23;2.73;;;17.20;99.90;;;;;;8321675;28;20193;-74
2022/05/14 07:40:39;;;;;;;6.43;2.93;;;17.50;99.90;;;;;;8324445;28;20195;-77
2022/05/14 07:44:44;;;;;;;8.23;4.40;;;17.40;99.90;;;;;;8341334;28;20189;-79
2022/05/14 07:48:46;;;;;;;6.57;3.40;;;17.10;99.90;;;;;;8325333;28;20209;-76
2022/05/14 07:52:47;;;;;;;8.33;4.70;;;17.20;99.90;;;;;;8332381;28;20255;-76
2022/05/14 07:56:48;;;;;;;5.43;4.90;;;17.60;99.90;;;;;;8340232;28;20209;-77
2022/05/14 08:00:49;;;;;;;7.23;5.03;;;17.50;99.90;;;;;;8315102;28;20192;-75
2022/05/14 08:04:50;;;;;;;7.13;4.77;;;17.20;99.90;;;;;;8346784;28;20186;-78
2022/05/14 08:08:55;;;;;;;8.10;5.97;;;17.30;99.90;;;;;;8329231;28;20174;-80
2022/05/14 08:12:57;;;;;;;10.47;5.57;;;17.10;99.90;;;;;;8326896;28;20209;-77
2022/05/14 08:16:58;;;;;;;5.70;4.80;;;17.50;99.90;;;;;;8323592;28;20212;-77
2022/05/14 08:24:30;;;;;;;11.47;4.90;;;17.50;99.90;;;;;;8332188;28;20182;-75
2022/05/14 08:25:23;;;;;;;14.80;5.27;;;17.60;99.90;;;;;;8340343;28;20209;-77
2022/05/14 08:29:24;;;;;;;7.23;3.93;;;17.80;99.90;;;;;;8315709;28;20205;-77
2022/05/14 08:33:25;;;;;;;6.20;4.10;;;17.90;99.90;;;;;;8321669;28;20362;-75
2022/05/14 08:37:26;;;;;;;10.23;4.10;;;18.30;99.90;;;;;;8339174;28;20182;-76
2022/05/14 08:41:27;;;;;;;7.33;4.03;;;18.20;98.20;;;;;;8336393;28;20201;-75
2022/05/14 08:45:32;;;;;;;8.20;4.30;;;18.00;96.00;;;;;;8322595;28;20257;-76
2022/05/14 08:49:39;;;;;;;7.33;4.30;;;18.10;99.90;;;;;;8332387;28;20321;-77
2022/05/14 08:53:42;;;;;;;6.00;3.80;;;18.20;99.90;;;;;;8328568;28;20225;-80
2022/05/14 08:57:57;;;;;;;5.17;3.60;;;18.10;91.50;;;;;;8328343;28;20236;-76
2022/05/14 09:02:07;;;;;;;10.47;4.50;;;18.30;84.20;;;;;;8317130;28;20228;-75
2022/05/14 09:06:07;;;;;;;5.10;3.50;;;18.00;41.20;;;;;;8326171;28;20296;-79
2022/05/14 09:10:21;;;;;;;6.40;3.80;;;17.90;47.40;;;;;;8319905;28;20227;-77
2022/05/14 09:14:35;;;;;;;4.13;2.93;;;17.60;99.90;;;;;;8330081;28;20216;-80
2022/05/14 09:18:46;;;;;;;8.27;4.10;;;18.20;88.10;;;;;;8323945;28;20181;-76
2022/05/14 09:22:54;;;;;;;5.43;3.40;;;18.50;1.00;;;;;;8334751;28;20186;-77
2022/05/14 09:27:07;;;;;;;6.90;3.07;;;19.30;2.10;;;;;;8316252;28;20197;-76
2022/05/14 09:31:08;;;;;;;6.10;2.87;;;19.60;1.00;;;;;;8322555;28;20187;-78
2022/05/14 09:35:33;;;;;;;6.90;2.70;;;19.30;1.00;;;;;;8323923;28;20181;-80
2022/05/14 09:39:34;;;;;;;5.47;2.77;;;19.20;1.00;;;;;;8325725;28;20218;-77
2022/05/14 09:43:37;;;;;;;5.10;2.97;;;19.30;7.90;;;;;;8330060;28;20218;-80
2022/05/14 09:47:39;;;;;;;7.37;3.13;;;19.30;1.00;;;;;;8321675;28;20190;-76
2022/05/14 09:52:00;;;;;;;5.80;2.63;;;19.20;1.00;;;;;;8337841;28;20202;-76
2022/05/14 09:56:09;;;;;;;4.43;2.77;;;19.60;1.00;;;;;;8319105;28;20195;-77
2022/05/14 10:00:12;;;;;;;5.67;2.73;;;19.70;1.00;;;;;;8328749;28;20182;-76
2022/05/14 10:04:39;;;;;;;7.00;2.87;;;19.60;1.00;;;;;;8324034;28;20341;-77
2022/05/14 10:08:51;;;;;;;6.97;2.67;;;19.50;1.00;;;;;;8339618;28;20186;-75
2022/05/14 10:13:25;;;;;;;7.27;3.27;;;19.10;1.00;;;;;;8315925;28;20277;-76
2022/05/14 10:17:42;;;;;;;11.33;3.30;;;19.00;1.00;;;;;;8301321;28;20190;-75
2022/05/14 10:21:46;;;;;;;8.87;3.07;;;18.90;1.00;;;;;;8321233;28;20189;-79
2022/05/14 10:30:48;;;;;;;8.97;2.77;;;19.00;1.00;;;;;;8338494;28;20240;-79
2022/05/14 10:35:27;;;;;;;5.30;3.43;;;19.10;1.00;;;;;;8316639;28;20308;-75
2022/05/14 10:39:44;;;;;;;7.03;2.80;;;19.60;1.00;;;;;;8330731;28;20198;-76
2022/05/14 10:44:14;;;;;;;5.60;2.50;;;20.30;1.00;;;;;;8341402;28;20202;-76
2022/05/14 10:48:42;;;;;;;6.23;3.30;;;20.40;1.00;;;;;;8318732;28;20209;-75
2022/05/14 10:52:45;;;;;;;10.57;3.57;;;20.40;1.00;;;;;;8333629;28;20305;-77
2022/05/14 10:57:00;;;;;;;9.13;2.93;;;19.90;1.00;;;;;;8351949;28;20186;-79
2022/05/14 11:01:03;;;;;;;5.00;2.73;;;19.90;1.00;;;;;;8325712;28;20189;-80
2022/05/14 11:05:06;;;;;;;6.33;3.10;;;19.70;1.00;;;;;;8330478;28;20195;-76
2022/05/14 11:09:23;;;;;;;5.23;2.80;;;20.30;1.00;;;;;;8341565;28;20186;-75
2022/05/14 11:13:27;;;;;;;6.00;3.00;;;20.50;1.00;;;;;;8315604;28;20277;-76
2022/05/14 11:17:38;;;;;;;8.33;3.00;;;20.20;1.00;;;;;;8321592;28;20218;-76
2022/05/14 11:21:46;;;;;;;6.87;2.77;;;19.60;1.00;;;;;;8338879;28;20182;-80
2022/05/14 11:25:47;;;;;;;6.67;2.80;;;19.30;1.00;;;;;;8345313;28;20239;-75
2022/05/14 11:29:47;;;;;;;6.30;3.07;;;18.90;1.00;;;;;;8329201;28;20210;-77
2022/05/14 11:33:49;;;;;;;4.67;2.47;;;18.90;1.00;;;;;;8344589;28;20344;-80
2022/05/14 11:37:52;;;;;;;7.10;3.17;;;19.20;1.00;;;;;;8351364;28;20268;-76
2022/05/14 11:42:06;;;;;;;4.63;2.50;;;20.10;1.00;;;;;;8329508;28;20209;-76
2022/05/14 11:46:28;;;;;;;6.17;2.50;;;20.60;1.00;;;;;;8338848;28;20189;-77
2022/05/14 11:50:40;;;;;;;8.47;2.60;;;21.20;1.00;;;;;;8336179;28;20201;-79
2022/05/14 11:54:47;;;;;;;5.40;2.70;;;21.40;1.00;;;;;;8328658;28;20217;-77
2022/05/14 11:58:55;;;;;;;4.13;2.10;;;21.20;1.00;;;;;;8327371;28;20228;-76
2022/05/14 12:03:12;;;;;;;5.03;2.60;;;20.60;1.00;;;;;;8339092;28;20291;-78
2022/05/14 12:07:38;;;;;;;9.43;2.53;;;20.10;1.00;;;;;;8327092;28;20201;-78
2022/05/14 12:11:57;;;;;;;4.90;2.40;;;19.80;1.00;;;;;;8347492;28;20210;-77
2022/05/14 12:16:00;;;;;;;5.30;2.30;;;19.70;1.00;;;;;;8330769;28;20182;-78
2022/05/14 12:20:02;;;;;;;4.47;2.30;;;19.40;1.00;;;;;;8328630;28;20265;-75
2022/05/14 12:24:03;;;;;;;4.20;2.23;;;19.30;1.00;;;;;;8340781;28;20235;-77
2022/05/14 12:28:04;;;;;;;8.07;2.53;;;19.60;1.00;;;;;;8325666;28;20198;-80
2022/05/14 12:36:45;;;;;;;6.23;2.10;;;20.50;1.00;;;;;;8341684;28;20193;-79
2022/05/14 12:40:46;;;;;;;6.60;2.53;;;20.90;1.00;;;;;;8323466;28;20209;-79
2022/05/14 12:44:48;;;;;;;5.07;2.00;;;21.00;1.00;;;;;;8346024;28;20368;-76
2022/05/14 12:48:52;;;;;;;5.87;2.20;;;21.40;1.00;;;;;;8340195;28;20225;-77
2022/05/14 12:52:56;;;;;;;7.33;2.60;;;21.40;1.00;;;;;;8325232;28;20213;-76
2022/05/14 12:57:01;;;;;;;7.00;2.10;;;21.30;1.00;;;;;;8323099;28;20186;-77
2022/05/14 13:01:05;;;;;;;5.57;2.20;;;21.60;1.00;;;;;;8324081;28;20183;-77
2022/05/14 13:05:16;;;;;;;5.27;2.57;;;21.80;1.00;;;;;;8341332;28;20178;-77
2022/05/14 13:09:22;;;;;;;7.00;2.17;;;22.00;1.00;;;;;;8328981;28;20183;-77
2022/05/14 13:13:31;;;;;;;4.20;1.90;;;22.10;1.00;;;;;;8327362;28;20210;-76
2022/05/14 13:17:38;;;;;;;6.50;2.03;;;21.80;1.00;;;;;;8326192;28;20471;-77
2022/05/14 13:21:49;;;;;;;6.70;2.10;;;21.80;1.00;;;;;;8320551;28;20201;-79
2022/05/14 13:26:08;;;;;;;5.53;2.03;;;21.40;1.00;;;;;;8325938;28;20187;-75
2022/05/14 13:30:13;;;;;;;3.30;1.87;;;21.20;1.00;;;;;;8321285;28;20202;-76
2022/05/14 13:39:00;;;;;;;5.13;2.27;;;21.40;1.00;;;;;;8340228;28;20220;-75
2022/05/14 13:43:22;;;;;;;7.43;2.10;;;22.00;1.00;;;;;;8336680;28;20187;-80
2022/05/14 13:47:23;;;;;;;6.03;2.03;;;21.90;1.00;;;;;;8340612;28;20185;-76
2022/05/14 13:51:36;;;;;;;5.27;2.07;;;21.70;1.00;;;;;;8335950;28;20186;-76
2022/05/14 13:55:41;;;;;;;3.40;1.73;;;21.90;1.00;;;;;;8317014;28;20264;-79
2022/05/14 13:59:42;;;;;;;3.77;2.00;;;22.10;1.00;;;;;;8341826;28;20186;-76
2022/05/14 14:03:55;;;;;;;6.03;1.93;;;22.10;1.00;;;;;;8319504;28;20197;-76
2022/05/14 14:07:57;;;;;;;6.63;1.73;;;21.90;1.00;;;;;;8321196;28;20188;-76
2022/05/14 14:11:58;;;;;;;4.97;1.80;;;21.90;1.00;;;;;;8341344;28;20254;-75
2022/05/14 14:15:59;;;;;;;3.10;1.30;;;21.90;1.00;;;;;;8329519;28;20212;-80
2022/05/14 14:20:00;;;;;;;3.73;1.43;;;22.00;1.00;;;;;;8318007;28;20186;-74
2022/05/14 14:24:04;;;;;;;4.97;1.87;;;21.60;1.00;;;;;;8329326;28;20186;-76
2022/05/14 14:28:08;;;;;;;5.50;1.90;;;21.40;1.00;;;;;;8330553;28;20458;-76
2022/05/14 14:32:09;;;;;;;6.70;1.90;;;21.30;1.00;;;;;;8332451;28;20202;-76
2022/05/14 14:36:11;;;;;;;3.13;2.03;;;20.80;1.00;;;;;;8320006;28;20185;-75
2022/05/14 14:40:12;;;;;;;7.30;1.67;;;20.70;1.00;;;;;;8345542;28;20193;-76
2022/05/14 14:44:13;;;;;;;5.87;1.53;;;20.50;1.00;;;;;;8328038;28;20186;-75
2022/05/14 14:48:14;;;;;;;4.70;2.10;;;20.50;1.00;;;;;;8325614;28;20190;-75
2022/05/14 14:52:15;;;;;;;4.83;1.90;;;20.70;1.00;;;;;;8318108;28;20206;-81
2022/05/14 14:56:16;;;;;;;8.47;1.47;;;20.60;1.00;;;;;;8333108;28;20210;-75
2022/05/14 15:00:21;;;;;;;7.93;2.10;;;20.40;1.00;;;;;;8329219;28;20174;-76
2022/05/14 15:04:32;;;;;;;3.90;1.80;;;20.60;1.00;;;;;;8326881;28;20183;-75
2022/05/14 15:08:37;;;;;;;2.80;1.60;;;21.20;1.00;;;;;;8320913;28;20189;-76
2022/05/14 15:12:39;;;;;;;9.17;1.73;;;21.70;1.00;;;;;;8331796;28;20213;-77
2022/05/14 15:16:40;;;;;;;4.13;1.77;;;21.80;1.00;;;;;;8345693;28;20189;-79
2022/05/14 15:20:41;;;;;;;5.47;1.87;;;21.90;1.00;;;;;;8331357;28;20197;-76
2022/05/14 15:24:42;;;;;;;6.10;1.93;;;21.90;1.00;;;;;;8324049;28;20186;-76
2022/05/14 15:28:43;;;;;;;4.30;1.70;;;22.00;1.00;;;;;;8328890;28;20229;-80
2022/05/14 15:32:44;;;;;;;7.50;1.90;;;21.70;1.00;;;;;;8323933;28;20206;-75
2022/05/14 15:36:45;;;;;;;4.37;1.90;;;21.10;1.00;;;;;;8350175;28;20185;-77
2022/05/14 15:40:50;;;;;;;7.63;1.70;;;20.80;1.00;;;;;;8342504;28;20271;-76
2022/05/14 15:45:06;;;;;;;2.50;1.50;;;20.70;1.00;;;;;;8330736;28;20190;-77
2022/05/14 15:49:12;;;;;;;6.30;1.67;;;20.60;1.00;;;;;;8346947;28;20186;-80
2022/05/14 15:53:18;;;;;;;4.37;1.70;;;20.70;1.00;;;;;;8329914;28;20210;-76
2022/05/14 15:57:18;;;;;;;5.67;1.50;;;21.00;1.00;;;;;;8326266;28;20190;-76
2022/05/14 16:01:19;;;;;;;3.60;1.47;;;21.20;1.00;;;;;;8344307;28;20298;-76
2022/05/14 16:05:21;;;;;;;5.07;1.77;;;21.00;1.00;;;;;;8323559;28;20217;-75
2022/05/14 16:09:22;;;;;;;5.53;1.67;;;20.70;1.00;;;;;;8331921;28;20182;-75
2022/05/14 16:17:43;;;;;;;3.90;1.77;;;20.20;1.00;;;;;;8332881;28;20254;-76
2022/05/14 16:21:43;;;;;;;4.63;2.03;;;20.30;1.00;;;;;;8322316;28;20389;-76
2022/05/14 16:25:44;;;;;;;3.83;1.97;;;20.40;1.00;;;;;;8322707;28;20226;-81
2022/05/14 16:34:08;;;;;;;7.93;2.20;;;20.50;1.00;;;;;;8331054;28;20216;-76
2022/05/14 16:38:10;;;;;;;4.13;1.67;;;20.30;1.00;;;;;;8327574;28;20213;-80
2022/05/14 16:42:11;;;;;;;10.23;3.30;;;20.10;1.00;;;;;;8328583;28;20206;-76
2022/05/14 16:46:13;;;;;;;10.30;3.50;;;19.90;1.00;;;;;;8333584;28;20217;-81
2022/05/14 16:50:14;;;;;;;4.43;1.80;;;19.80;1.00;;;;;;8330211;28;20193;-80
2022/05/14 16:54:15;;;;;;;8.83;3.20;;;19.80;1.00;;;;;;8323919;28;20216;-78
2022/05/14 16:58:16;;;;;;;4.87;1.70;;;19.90;1.00;;;;;;8324670;28;20269;-77
2022/05/14 17:02:17;;;;;;;5.00;2.20;;;19.90;1.00;;;;;;8330266;28;20178;-78
2022/05/14 17:06:18;;;;;;;6.67;1.80;;;20.00;1.00;;;;;;8319511;28;20222;-77
2022/05/14 17:10:24;;;;;;;6.13;2.33;;;19.90;1.00;;;;;;8318311;28;20216;-78
2022/05/14 17:14:24;;;;;;;4.53;2.30;;;19.90;1.00;;;;;;8341087;28;20292;-76
2022/05/14 17:18:25;;;;;;;4.50;1.93;;;19.80;1.00;;;;;;8341472;28;20178;-79
2022/05/14 17:22:26;;;;;;;7.97;2.30;;;19.80;1.00;;;;;;8321828;28;20190;-75
2022/05/14 17:26:27;;;;;;;5.87;1.80;;;19.90;1.00;;;;;;8346522;28;20206;-75
2022/05/14 17:30:32;;;;;;;6.17;1.90;;;19.90;1.00;;;;;;8333981;28;20210;-78
2022/05/14 17:34:33;;;;;;;4.07;1.77;;;19.90;1.00;;;;;;8341486;28;20205;-80
2022/05/14 17:42:54;;;;;;;9.13;2.70;;;19.70;1.00;;;;;;8337566;28;20194;-75
2022/05/14 17:46:56;;;;;;;6.17;2.33;;;19.50;1.00;;;;;;8329398;28;20196;-76
2022/05/14 17:50:57;;;;;;;5.33;2.33;;;19.50;1.00;;;;;;8324086;28;20399;-75
2022/05/14 17:54:58;;;;;;;5.40;2.00;;;19.30;1.00;;;;;;8327808;28;20206;-77
2022/05/14 17:58:58;;;;;;;6.27;1.83;;;19.20;1.00;;;;;;8342424;28;20185;-80
2022/05/14 18:02:59;;;;;;;8.70;3.40;;;19.10;1.00;;;;;;8327489;28;20189;-80
2022/05/14 18:07:01;;;;;;;9.57;2.50;;;19.20;1.00;;;;;;8318333;28;20185;-77
2022/05/14 18:15:23;;;;;;;6.80;3.43;;;18.70;1.30;;;;;;8337826;28;20273;-80
2022/05/14 18:19:27;;;;;;;9.23;4.87;;;18.50;19.60;;;;;;8320734;28;20222;-76
2022/05/14 18:23:28;;;;;;;6.33;4.03;;;18.30;30.80;;;;;;8326358;28;20182;-76
2022/05/14 18:27:33;;;;;;;5.33;2.97;;;18.10;57.40;;;;;;8325133;28;20209;-76
2022/05/14 18:31:35;;;;;;;6.17;2.67;;;17.90;90.80;;;;;;8322157;28;20193;-79
2022/05/14 18:35:41;;;;;;;3.73;1.90;;;17.60;99.90;;;;;;8339614;28;20317;-77
2022/05/14 18:39:50;;;;;;;4.33;2.57;;;17.40;99.90;;;;;;8320583;28;20201;-76
2022/05/14 18:43:52;;;;;;;6.23;2.90;;;17.10;99.90;;;;;;8318129;28;20205;-79
2022/05/14 18:47:53;;;;;;;5.30;3.30;;;16.80;99.90;;;;;;8316555;28;20193;-79
2022/05/14 18:51:54;;;;;;;5.10;2.80;;;16.60;99.90;;;;;;8337178;28;20214;-76
2022/05/14 18:55:55;;;;;;;5.50;3.10;;;16.30;99.90;;;;;;8324013;28;20186;-80
2022/05/14 18:59:56;;;;;;;5.03;2.50;;;16.10;1.00;;;;;;8337981;28;20280;-75
2022/05/14 19:08:19;;;;;;;3.33;2.30;;;15.60;1.00;;;;;;8343212;28;20206;-78
2022/05/14 19:12:21;;;;;;;4.23;2.53;;;15.40;5.20;;;;;;8319343;28;20310;-78
2022/05/14 19:16:22;;;;;;;3.87;2.40;;;15.30;85.30;;;;;;8328863;28;20202;-79
2022/05/14 19:20:23;;;;;;;4.97;3.10;;;15.20;99.90;;;;;;8340650;28;20190;-79
2022/05/14 19:24:25;;;;;;;5.17;3.07;;;15.00;99.90;;;;;;8324279;28;20588;-77
2022/05/14 19:28:27;;;;;;;6.10;2.90;;;14.90;99.90;;;;;;8327829;28;20221;-77
2022/05/14 19:32:28;;;;;;;5.33;2.80;;;14.70;99.90;;;;;;8336263;28;20210;-77
2022/05/14 19:36:30;;;;;;;4.40;3.07;;;14.50;99.90;;;;;;8330087;28;20187;-78
2022/05/14 19:40:48;;;;;;;3.93;2.87;;;14.30;99.90;;;;;;8331740;28;20255;-78
2022/05/14 19:44:54;;;;;;;7.27;2.90;;;14.20;99.90;;;;;;8317456;28;20190;-78
2022/05/14 19:48:56;;;;;;;4.00;2.90;;;14.10;99.90;;;;;;8318582;28;20252;-78
2022/05/14 19:53:02;;;;;;;5.03;3.00;;;14.00;1.00;;;;;;8339731;28;20212;-79
2022/05/14 19:57:03;;;;;;;6.40;3.20;;;13.90;1.00;;;;;;8328994;28;20191;-79
2022/05/14 20:01:05;;;;;;;5.63;3.50;;;13.80;1.00;;;;;;8329002;28;20182;-79
2022/05/14 20:05:08;;;;;;;5.73;4.17;;;13.70;1.00;;;;;;8332629;28;20194;-79
2022/05/14 20:09:10;;;;;;;5.00;3.27;;;13.60;1.00;;;;;;8328155;28;20217;-79
2022/05/14 20:13:16;;;;;;;5.20;2.93;;;13.50;31.00;;;;;;8328815;28;20218;-79
2022/05/14 20:21:37;;;;;;;5.40;3.07;;;13.20;99.90;;;;;;8337017;28;20206;-78
2022/05/14 20:25:41;;;;;;;5.97;3.33;;;13.10;99.90;;;;;;8323084;28;20282;-78
2022/05/14 20:29:43;;;;;;;4.03;2.77;;;13.00;99.90;;;;;;8329189;28;20208;-78
2022/05/14 20:33:45;;;;;;;4.13;2.87;;;12.90;99.90;;;;;;8343652;28;20206;-78
2022/05/14 20:37:47;;;;;;;3.83;2.83;;;12.90;99.90;;;;;;8326597;28;20184;-78
2022/05/14 20:41:48;;;;;;;3.23;2.93;;;12.80;99.90;;;;;;8328479;28;20217;-77
2022/05/14 20:45:49;;;;;;;6.30;2.60;;;12.80;99.90;;;;;;8319742;28;20225;-78
2022/05/14 20:49:51;;;;;;;3.93;2.67;;;12.70;1.00;;;;;;8325166;28;20192;-79
2022/05/14 20:53:52;;;;;;;6.97;2.77;;;12.70;1.00;;;;;;8323988;28;20214;-79
2022/05/14 20:57:53;;;;;;;3.30;2.50;;;12.60;1.00;;;;;;8330016;28;20200;-79
2022/05/14 21:01:54;;;;;;;3.70;2.43;;;12.60;1.00;;;;;;8322706;28;20200;-79
2022/05/14 21:05:55;;;;;;;3.33;2.70;;;12.60;1.00;;;;;;8333357;28;20481;-77
2022/05/14 21:09:56;;;;;;;4.93;2.83;;;12.60;1.00;;;;;;8333477;28;20185;-79
2022/05/14 21:13:57;;;;;;;3.83;2.50;;;12.60;1.00;;;;;;8319551;28;20221;-79
2022/05/14 21:17:58;;;;;;;5.17;2.80;;;12.50;1.00;;;;;;8324330;28;20232;-78
2022/05/14 21:22:00;;;;;;;7.17;2.90;;;12.50;1.00;;;;;;8341099;28;20200;-79
2022/05/14 21:26:01;;;;;;;4.40;2.80;;;12.50;1.00;;;;;;8342827;28;20192;-78
2022/05/14 21:30:04;;;;;;;5.20;2.80;;;12.40;57.10;;;;;;8299767;28;20206;-77
2022/05/14 21:38:26;;;;;;;5.20;3.20;;;12.10;99.90;;;;;;8344587;28;20246;-78
2022/05/14 21:42:27;;;;;;;4.23;2.53;;;12.10;99.90;;;;;;8321704;28;20193;-78
2022/05/14 21:46:28;;;;;;;6.47;2.93;;;12.10;99.90;;;;;;8310056;28;20224;-78
2022/05/14 21:50:29;;;;;;;5.27;2.90;;;12.10;99.90;;;;;;8324467;28;20188;-77
2022/05/14 21:54:30;;;;;;;5.50;2.70;;;12.10;99.90;;;;;;8328217;28;20298;-77
2022/05/14 21:58:31;;;;;;;4.87;3.00;;;12.10;99.90;;;;;;8329157;28;20178;-77
2022/05/14 22:02:32;;;;;;;4.97;2.60;;;12.20;99.90;;;;;;8319378;28;20189;-78
2022/05/14 22:06:33;;;;;;;3.70;2.50;;;12.10;99.90;;;;;;8327383;28;20196;-77
2022/05/14 22:10:34;;;;;;;5.83;2.83;;;12.10;99.90;;;;;;8323904;28;20186;-78
2022/05/14 22:14:37;;;;;;;3.67;2.70;;;12.00;99.90;;;;;;8339999;28;20209;-77
2022/05/14 22:18:38;;;;;;;6.10;3.07;;;12.10;99.90;;;;;;8299343;28;20195;-77
2022/05/14 22:22:39;;;;;;;6.43;3.40;;;12.20;99.90;;;;;;8328030;28;20201;-78
2022/05/14 22:26:40;;;;;;;5.97;3.47;;;12.30;82.60;;;;;;8329713;28;20204;-78